Time;durP1;ratioP1;P1;durP2;ratioP2;P2;SDS_P1;SDS_P2;PMS_P1;PMS_P2;Temp;Humidity;BMP_temperature;BMP_pressure;BME280_temperature;BME280_humidity;BME280_pressure;Samples;Min_cycle;Max_cycle;Signal;HPM_P1;HPM_P2
2023/09/08 00:01:51;;;;;;;;;16.25;15.75;;;;;-146.67;100.00;57155.34;5103239;28;8847;-76
2023/09/08 00:04:16;;;;;;;;;17.50;16.50;;;;;-146.67;100.00;57155.34;5101972;28;8865;-76
2023/09/08 00:06:41;;;;;;;;;18.75;15.75;;;;;-146.67;100.00;57155.34;5102851;28;8826;-75
2023/09/08 00:09:07;;;;;;;;;14.50;12.25;;;;;-146.67;100.00;57155.34;5102433;28;9955;-75
2023/09/08 00:11:33;;;;;;;;;18.00;13.00;;;;;-146.67;100.00;57155.34;5084700;28;8793;-76
2023/09/08 00:13:58;;;;;;;;;16.50;15.00;;;;;-146.67;100.00;57155.34;5103624;28;8796;-75
2023/09/08 00:16:24;;;;;;;;;15.75;13.00;;;;;-146.67;100.00;57155.34;5102009;28;8803;-76
2023/09/08 00:18:50;;;;;;;;;15.25;15.25;;;;;-146.67;100.00;57155.34;5102874;28;10065;-76
2023/09/08 00:21:15;;;;;;;;;20.25;15.00;;;;;-146.67;100.00;57155.34;5101064;28;8779;-75
2023/09/08 00:23:41;;;;;;;;;15.25;15.00;;;;;-146.67;100.00;57155.34;5101532;28;9782;-76
2023/09/08 00:26:06;;;;;;;;;17.25;15.75;;;;;-146.67;100.00;57155.34;5102323;28;8807;-75
2023/09/08 00:28:32;;;;;;;;;17.00;15.00;;;;;-146.67;100.00;57155.34;5103652;28;8807;-75
2023/09/08 00:30:59;;;;;;;;;18.00;16.75;;;;;-146.67;100.00;57155.34;5103260;28;8870;-75
2023/09/08 00:33:25;;;;;;;;;17.25;15.50;;;;;-146.67;100.00;57155.34;5102487;28;8732;-75
2023/09/08 00:35:51;;;;;;;;;20.25;17.50;;;;;-146.67;100.00;57155.34;5101810;28;9865;-76
2023/09/08 00:38:17;;;;;;;;;18.00;13.00;;;;;-146.67;100.00;57155.34;5103672;28;8801;-75
2023/09/08 00:40:42;;;;;;;;;14.25;14.25;;;;;-146.67;100.00;57155.34;5102209;28;9860;-75
2023/09/08 00:43:07;;;;;;;;;19.25;16.25;;;;;-146.67;100.00;57155.34;5102181;28;8791;-75
2023/09/08 00:45:38;;;;;;;;;17.50;15.00;;;;;-146.67;100.00;57155.34;5102495;28;8806;-76
2023/09/08 00:48:04;;;;;;;;;16.00;13.67;;;;;-146.67;100.00;57155.34;5101829;28;10027;-75
2023/09/08 00:50:30;;;;;;;;;15.25;14.25;;;;;-146.67;100.00;57155.34;5101228;28;10623;-76
2023/09/08 00:52:56;;;;;;;;;15.25;14.75;;;;;-146.67;100.00;57155.34;5102108;28;9717;-75
2023/09/08 00:55:21;;;;;;;;;16.25;15.00;;;;;-146.67;100.00;57155.34;5102132;28;9088;-75
2023/09/08 00:57:47;;;;;;;;;16.25;15.25;;;;;-146.67;100.00;57155.34;5101652;28;10021;-75
2023/09/08 01:00:13;;;;;;;;;18.25;17.25;;;;;-146.67;100.00;57155.34;5105402;28;8821;-76
2023/09/08 01:02:39;;;;;;;;;17.25;15.75;;;;;-146.67;100.00;57155.34;5085393;28;8817;-75
2023/09/08 01:05:05;;;;;;;;;18.25;15.75;;;;;-146.67;100.00;57155.34;5099655;28;9738;-75
2023/09/08 01:07:31;;;;;;;;;14.00;14.00;;;;;-146.67;100.00;57155.34;5102766;28;8813;-75
2023/09/08 01:09:57;;;;;;;;;16.50;16.50;;;;;-146.67;100.00;57155.34;5101428;28;8713;-75
2023/09/08 01:12:24;;;;;;;;;17.00;17.00;;;;;-146.67;100.00;57155.34;5100614;28;9734;-75
2023/09/08 01:14:49;;;;;;;;;16.75;15.75;;;;;-146.67;100.00;57155.34;5101805;28;8781;-75
2023/09/08 01:17:14;;;;;;;;;18.25;16.75;;;;;-146.67;100.00;57155.34;5100611;28;10109;-75
2023/09/08 01:19:43;;;;;;;;;15.50;14.75;;;;;-146.67;100.00;57155.34;5084115;28;8802;-75
2023/09/08 01:22:28;;;;;;;;;11.75;11.75;;;;;-146.67;100.00;57155.34;5098654;28;8813;-75
2023/09/08 01:25:14;;;;;;;;;25.75;20.75;;;;;-146.67;100.00;57155.34;5082662;28;9759;-75
2023/09/08 01:27:45;;;;;;;;;17.50;17.25;;;;;-146.67;100.00;57155.34;5068643;28;9787;-76
2023/09/08 01:30:13;;;;;;;;;15.25;13.75;;;;;-146.67;100.00;57155.34;5082331;28;9554;-76
2023/09/08 01:32:40;;;;;;;;;22.00;17.75;;;;;-146.67;100.00;57155.34;5082393;28;9683;-75
2023/09/08 01:35:07;;;;;;;;;18.25;15.50;;;;;-146.67;100.00;57155.34;5081095;28;9846;-75
2023/09/08 01:37:32;;;;;;;;;11.25;10.50;;;;;-146.67;100.00;57155.34;5064298;28;10010;-75
2023/09/08 01:39:58;;;;;;;;;17.00;12.00;;;;;-146.67;100.00;57155.34;5086869;28;9563;-75
2023/09/08 01:42:23;;;;;;;;;18.00;16.50;;;;;-146.67;100.00;57155.34;5090949;28;8841;-75
2023/09/08 01:44:48;;;;;;;;;16.75;15.50;;;;;-146.67;100.00;57155.34;5063770;28;8823;-75
2023/09/08 01:47:14;;;;;;;;;19.50;15.00;;;;;-146.67;100.00;57155.34;5064203;28;8791;-75
2023/09/08 01:49:39;;;;;;;;;16.25;14.00;;;;;-146.67;100.00;57155.34;5080341;28;8806;-75
2023/09/08 01:52:05;;;;;;;;;18.25;17.00;;;;;-146.67;100.00;57155.34;5063746;28;8797;-75
2023/09/08 01:54:30;;;;;;;;;14.75;14.75;;;;;-146.67;100.00;57155.34;5081004;28;8797;-75
2023/09/08 01:56:56;;;;;;;;;18.25;16.25;;;;;-146.67;100.00;57155.34;5080038;28;9945;-75
2023/09/08 01:59:21;;;;;;;;;20.50;16.50;;;;;-146.67;100.00;57155.34;5080049;28;8940;-75
2023/09/08 02:01:46;;;;;;;;;15.00;14.50;;;;;-146.67;100.00;57155.34;5080897;28;8789;-75
2023/09/08 02:04:12;;;;;;;;;18.50;15.75;;;;;-146.67;100.00;57155.34;5081853;28;8821;-76
2023/09/08 02:06:37;;;;;;;;;20.00;16.75;;;;;-146.67;100.00;57155.34;5080744;28;10044;-76
2023/09/08 02:09:03;;;;;;;;;13.50;13.50;;;;;-146.67;100.00;57155.34;5083117;28;8822;-75
2023/09/08 02:11:28;;;;;;;;;15.00;13.00;;;;;-146.67;100.00;57155.34;5063440;28;8751;-75
2023/09/08 02:13:54;;;;;;;;;20.33;16.33;;;;;-146.67;100.00;57155.34;5081782;28;9852;-75
2023/09/08 02:16:19;;;;;;;;;17.50;17.00;;;;;-146.67;100.00;57155.34;5063741;28;9889;-75
2023/09/08 02:18:45;;;;;;;;;18.25;15.75;;;;;-146.67;100.00;57155.34;5082250;28;8812;-75
2023/09/08 02:21:11;;;;;;;;;20.25;16.25;;;;;-146.67;100.00;57155.34;5080608;28;8805;-75
2023/09/08 02:23:37;;;;;;;;;12.75;12.75;;;;;-146.67;100.00;57155.34;5095092;28;8785;-75
2023/09/08 02:26:03;;;;;;;;;16.25;15.25;;;;;-146.67;100.00;57155.34;5101693;28;11497;-75
2023/09/08 02:28:29;;;;;;;;;21.25;14.75;;;;;-146.67;100.00;57155.34;5104739;28;8775;-76
2023/09/08 02:30:54;;;;;;;;;16.75;13.25;;;;;-146.67;100.00;57155.34;5084006;28;8886;-75
2023/09/08 02:33:20;;;;;;;;;18.50;17.00;;;;;-146.67;100.00;57155.34;5104358;28;8934;-76
2023/09/08 02:35:45;;;;;;;;;16.50;15.50;;;;;-146.67;100.00;57155.34;5087441;28;9862;-75
2023/09/08 02:38:11;;;;;;;;;14.50;12.50;;;;;-146.67;100.00;57155.34;5105643;28;8862;-75
2023/09/08 02:40:36;;;;;;;;;22.25;16.25;;;;;-146.67;100.00;57155.34;5103945;28;8855;-76
2023/09/08 02:43:02;;;;;;;;;18.00;17.00;;;;;-146.67;100.00;57155.34;5092003;28;9114;-76
2023/09/08 02:45:28;;;;;;;;;18.75;15.00;;;;;-146.67;100.00;57155.34;5084860;28;9898;-75
2023/09/08 02:47:54;;;;;;;;;19.25;15.50;;;;;-146.67;100.00;57155.34;5104061;28;8934;-75
2023/09/08 02:50:20;;;;;;;;;16.75;15.00;;;;;-146.67;100.00;57155.34;5103457;28;8809;-75
2023/09/08 02:52:45;;;;;;;;;20.25;14.25;;;;;-146.67;100.00;57155.34;5105648;28;8759;-75
2023/09/08 02:55:11;;;;;;;;;16.00;16.00;;;;;-146.67;100.00;57155.34;5105301;28;10058;-75
2023/09/08 02:57:37;;;;;;;;;16.00;14.75;;;;;-146.67;100.00;57155.34;5104645;28;9307;-75
2023/09/08 03:00:04;;;;;;;;;15.75;15.75;;;;;-146.67;100.00;57155.34;5103987;28;8799;-75
2023/09/08 03:02:30;;;;;;;;;15.00;12.25;;;;;-146.67;100.00;57155.34;5104083;28;8787;-75
2023/09/08 03:04:55;;;;;;;;;17.00;16.00;;;;;-146.67;100.00;57155.34;5105306;28;10260;-75
2023/09/08 03:07:21;;;;;;;;;14.00;14.00;;;;;-146.67;100.00;57155.34;5120731;28;8799;-75
2023/09/08 03:09:46;;;;;;;;;15.00;14.50;;;;;-146.67;100.00;57155.34;5104019;28;8890;-75
2023/09/08 03:12:12;;;;;;;;;11.75;11.75;;;;;-146.67;100.00;57155.34;5104995;28;8827;-75
2023/09/08 03:14:38;;;;;;;;;17.50;14.25;;;;;-146.67;100.00;57155.34;5104854;28;8860;-75
2023/09/08 03:17:03;;;;;;;;;18.50;15.00;;;;;-146.67;100.00;57155.34;5105263;28;9530;-75
2023/09/08 03:19:28;;;;;;;;;17.00;15.00;;;;;-146.67;100.00;57155.34;5119999;28;8889;-75
2023/09/08 03:21:54;;;;;;;;;15.75;14.75;;;;;-146.67;100.00;57155.34;5104651;28;8791;-75
2023/09/08 03:24:24;;;;;;;;;14.00;12.25;;;;;-146.67;100.00;57155.34;5095236;28;10131;-75
2023/09/08 03:26:51;;;;;;;;;16.75;14.25;;;;;-146.67;100.00;57155.34;5097108;28;8921;-75
2023/09/08 03:29:17;;;;;;;;;14.50;14.50;;;;;-146.67;100.00;57155.34;5103736;28;9899;-75
2023/09/08 03:31:42;;;;;;;;;18.00;14.00;;;;;-146.67;100.00;57155.34;5104500;28;9753;-74
2023/09/08 03:34:07;;;;;;;;;15.00;14.00;;;;;-146.67;100.00;57155.34;5097718;28;8828;-82
2023/09/08 03:36:35;;;;;;;;;9.75;7.25;;;;;-146.67;100.00;57155.34;5072729;28;8857;-81
2023/09/08 03:39:01;;;;;;;;;16.75;14.00;;;;;-146.67;100.00;57155.34;5066255;28;8785;-76
2023/09/08 03:41:27;;;;;;;;;15.00;15.00;;;;;-146.67;100.00;57155.34;5101711;28;9768;-77
2023/09/08 03:43:52;;;;;;;;;16.00;16.00;;;;;-146.67;100.00;57155.34;5092410;28;9935;-83
2023/09/08 03:46:18;;;;;;;;;19.00;14.00;;;;;-146.67;100.00;57155.34;5104914;28;8801;-78
2023/09/08 03:48:43;;;;;;;;;14.25;14.25;;;;;-146.67;100.00;57155.34;5101281;28;8912;-76
2023/09/08 03:51:08;;;;;;;;;16.75;15.00;;;;;-146.67;100.00;57155.34;5103420;28;8787;-74
2023/09/08 03:53:34;;;;;;;;;16.00;14.50;;;;;-146.67;100.00;57155.34;5103671;28;8798;-76
2023/09/08 03:55:59;;;;;;;;;21.00;14.25;;;;;-146.67;100.00;57155.34;5091527;28;8815;-75
2023/09/08 03:58:25;;;;;;;;;21.75;16.25;;;;;-146.67;100.00;57155.34;5100699;28;8900;-77
2023/09/08 04:00:50;;;;;;;;;16.75;16.25;;;;;-146.67;100.00;57155.34;5101644;28;8810;-79
2023/09/08 04:03:16;;;;;;;;;15.75;14.75;;;;;-146.67;100.00;57155.34;5101111;28;8819;-78
2023/09/08 04:05:41;;;;;;;;;16.25;15.50;;;;;-146.67;100.00;57155.34;5098018;28;8955;-78
2023/09/08 04:08:07;;;;;;;;;16.00;11.00;;;;;-146.67;100.00;57155.34;5102925;28;8783;-78
2023/09/08 04:10:33;;;;;;;;;19.50;14.50;;;;;-146.67;100.00;57155.34;5098870;28;8873;-78
2023/09/08 04:12:59;;;;;;;;;17.00;13.50;;;;;-146.67;100.00;57155.34;5072477;28;8793;-78
2023/09/08 04:15:24;;;;;;;;;15.00;13.75;;;;;-146.67;100.00;57155.34;5103176;28;8787;-78
2023/09/08 04:17:50;;;;;;;;;16.00;16.00;;;;;-146.67;100.00;57155.34;5082187;28;9955;-78
2023/09/08 04:20:15;;;;;;;;;16.25;16.00;;;;;-146.67;100.00;57155.34;5102462;28;8905;-78
2023/09/08 04:22:41;;;;;;;;;18.50;15.25;;;;;-146.67;100.00;57155.34;5101219;28;9909;-78
2023/09/08 04:25:07;;;;;;;;;18.50;17.50;;;;;-146.67;100.00;57155.34;5099998;28;8872;-78
2023/09/08 04:27:32;;;;;;;;;21.50;20.50;;;;;-146.67;100.00;57155.34;5103709;28;8796;-78
2023/09/08 04:29:59;;;;;;;;;19.25;17.25;;;;;-146.67;100.00;57155.34;5090337;28;8783;-78
2023/09/08 04:32:24;;;;;;;;;22.00;18.50;;;;;-146.67;100.00;57155.34;5093276;28;10075;-78
2023/09/08 04:34:50;;;;;;;;;17.50;15.50;;;;;-146.67;100.00;57155.34;5089007;28;10034;-78
2023/09/08 04:37:16;;;;;;;;;19.50;18.75;;;;;-146.67;100.00;57155.34;5080740;28;9383;-78
2023/09/08 04:39:42;;;;;;;;;17.75;16.50;;;;;-146.67;100.00;57155.34;5100215;28;8798;-79
2023/09/08 04:42:08;;;;;;;;;22.00;22.00;;;;;-146.67;100.00;57155.34;5102287;28;10309;-79
2023/09/08 04:44:33;;;;;;;;;21.50;20.25;;;;;-146.67;100.00;57155.34;5122415;28;8816;-79
2023/09/08 04:46:59;;;;;;;;;24.50;19.75;;;;;-146.67;100.00;57155.34;5108462;28;10175;-79
2023/09/08 04:49:24;;;;;;;;;21.75;19.00;;;;;-146.67;100.00;57155.34;5115923;28;9532;-78
2023/09/08 04:51:50;;;;;;;;;20.75;20.00;;;;;-146.67;100.00;57155.34;5102274;28;8802;-78
2023/09/08 04:54:15;;;;;;;;;21.50;19.50;;;;;-146.67;100.00;57155.34;5099031;28;8811;-78
2023/09/08 04:56:41;;;;;;;;;25.75;20.75;;;;;-146.67;100.00;57155.34;5084117;28;8891;-78
2023/09/08 04:59:07;;;;;;;;;20.75;19.75;;;;;-146.67;100.00;57155.34;5103168;28;8779;-78
2023/09/08 05:01:33;;;;;;;;;18.50;17.25;;;;;-146.67;100.00;57155.34;5084090;28;9906;-78
2023/09/08 05:03:59;;;;;;;;;23.25;22.00;;;;;-146.67;100.00;57155.34;5084586;28;9011;-78
2023/09/08 05:06:25;;;;;;;;;25.25;21.75;;;;;-146.67;100.00;57155.34;5104855;28;10197;-79
2023/09/08 05:08:51;;;;;;;;;26.25;22.50;;;;;-146.67;100.00;57155.34;5106318;28;8785;-78
2023/09/08 05:11:17;;;;;;;;;26.00;24.25;;;;;-146.67;100.00;57155.34;5115147;28;8812;-78
2023/09/08 05:13:42;;;;;;;;;24.00;21.50;;;;;-146.67;100.00;57155.34;5088466;28;8807;-78
2023/09/08 05:16:11;;;;;;;;;22.75;22.00;;;;;-146.67;100.00;57155.34;5083779;28;11253;-78
2023/09/08 05:18:40;;;;;;;;;27.50;25.00;;;;;-146.67;100.00;57155.34;5099800;28;8784;-78
2023/09/08 05:21:06;;;;;;;;;22.25;18.75;;;;;-146.67;100.00;57155.34;5094086;28;10619;-80
2023/09/08 05:23:31;;;;;;;;;30.75;24.25;;;;;-146.67;100.00;57155.34;5102362;28;10507;-79
2023/09/08 05:25:57;;;;;;;;;25.50;24.50;;;;;-146.67;100.00;57155.34;5097144;28;10499;-78
2023/09/08 05:28:22;;;;;;;;;24.25;21.00;;;;;-146.67;100.00;57155.34;5103199;28;8888;-79
2023/09/08 05:30:51;;;;;;;;;20.75;20.75;;;;;-146.67;100.00;57155.34;5107057;28;8857;-78
2023/09/08 05:33:16;;;;;;;;;20.00;18.50;;;;;-146.67;100.00;57155.34;5101711;28;8800;-79
2023/09/08 05:35:42;;;;;;;;;24.25;20.50;;;;;-146.67;100.00;57155.34;5088621;28;10207;-78
2023/09/08 05:38:07;;;;;;;;;23.25;20.00;;;;;-146.67;100.00;57155.34;5094194;28;8823;-77
2023/09/08 05:40:34;;;;;;;;;28.50;20.50;;;;;-146.67;100.00;57155.34;5102974;28;10022;-77
2023/09/08 05:43:00;;;;;;;;;26.00;21.00;;;;;-146.67;100.00;57155.34;5115512;28;8873;-78
2023/09/08 05:45:25;;;;;;;;;21.50;20.75;;;;;-146.67;100.00;57155.34;5100654;28;10222;-78
2023/09/08 05:47:51;;;;;;;;;27.00;24.75;;;;;-146.67;100.00;57155.34;5087879;28;8855;-77
2023/09/08 05:50:17;;;;;;;;;23.00;18.00;;;;;-146.67;100.00;57155.34;5088825;28;10045;-77
2023/09/08 05:52:43;;;;;;;;;27.75;20.75;;;;;-146.67;100.00;57155.34;5091899;28;10277;-77
2023/09/08 05:55:19;;;;;;;;;23.75;23.00;;;;;-146.67;100.00;57155.34;5100062;28;8815;-77
2023/09/08 05:57:44;;;;;;;;;24.25;20.25;;;;;-146.67;100.00;57155.34;5100585;28;8949;-77
2023/09/08 06:00:10;;;;;;;;;21.75;20.00;;;;;-146.67;100.00;57155.34;5087857;28;11233;-77
2023/09/08 06:02:35;;;;;;;;;27.25;22.00;;;;;-146.67;100.00;57155.34;5080716;28;8806;-77
2023/09/08 06:05:02;;;;;;;;;21.00;18.50;;;;;-146.67;100.00;57155.34;5097409;28;8837;-77
2023/09/08 06:07:28;;;;;;;;;27.75;25.00;;;;;-146.67;100.00;57155.34;5102814;28;8803;-77
2023/09/08 06:09:53;;;;;;;;;23.00;19.00;;;;;-146.67;100.00;57155.34;5101242;28;10579;-77
2023/09/08 06:12:19;;;;;;;;;22.50;19.50;;;;;-146.67;100.00;57155.34;5097629;28;8854;-78
2023/09/08 06:14:44;;;;;;;;;21.75;21.75;;;;;-146.67;100.00;57155.34;5094306;28;8924;-76
2023/09/08 06:17:10;;;;;;;;;19.75;19.75;;;;;-146.67;100.00;57155.34;5107128;28;8821;-76
2023/09/08 06:19:36;;;;;;;;;24.75;20.75;;;;;-146.67;100.00;57155.34;5080944;28;8791;-77
2023/09/08 06:22:01;;;;;;;;;25.75;23.25;;;;;-146.67;100.00;57155.34;5109072;28;10448;-76
2023/09/08 06:24:27;;;;;;;;;23.00;19.75;;;;;-146.67;100.00;57155.34;5092542;28;9029;-76
2023/09/08 06:26:53;;;;;;;;;25.00;21.50;;;;;-146.67;100.00;57155.34;5112207;28;8811;-76
2023/09/08 06:29:18;;;;;;;;;23.00;20.75;;;;;-146.67;100.00;57155.34;5107110;28;11665;-75
2023/09/08 06:31:44;;;;;;;;;25.00;20.75;;;;;-146.67;100.00;57155.34;5094469;28;8844;-75
2023/09/08 06:34:09;;;;;;;;;21.50;19.25;;;;;-146.67;100.00;57155.34;5071185;28;8877;-76
2023/09/08 06:36:35;;;;;;;;;25.00;22.25;;;;;-146.67;100.00;57155.34;5072614;28;9688;-76
2023/09/08 06:39:00;;;;;;;;;16.25;10.50;;;;;-146.67;100.00;57155.34;5094925;28;9863;-78
2023/09/08 06:41:27;;;;;;;;;22.00;21.50;;;;;-146.67;100.00;57155.34;5083422;28;8854;-78
2023/09/08 06:43:53;;;;;;;;;25.00;23.75;;;;;-146.67;100.00;57155.34;5082062;28;8899;-77
2023/09/08 06:46:18;;;;;;;;;29.00;22.00;;;;;-146.67;100.00;57155.34;5075273;28;10414;-78
2023/09/08 06:48:43;;;;;;;;;23.25;20.75;;;;;-146.67;100.00;57155.34;5101489;28;11516;-77
2023/09/08 06:51:09;;;;;;;;;22.50;21.75;;;;;-146.67;100.00;57155.34;5114932;28;8795;-77
2023/09/08 06:53:36;;;;;;;;;26.75;20.75;;;;;-146.67;100.00;57155.34;5123942;28;8859;-77
2023/09/08 06:56:01;;;;;;;;;23.75;21.00;;;;;-146.67;100.00;57155.34;5123779;28;9522;-76
2023/09/08 06:58:27;;;;;;;;;28.50;23.75;;;;;-146.67;100.00;57155.34;5099824;28;10492;-77
2023/09/08 07:00:54;;;;;;;;;31.25;24.50;;;;;-146.67;100.00;57155.34;5103054;28;8889;-77
2023/09/08 07:03:21;;;;;;;;;25.25;24.00;;;;;-146.67;100.00;57155.34;5089865;28;8751;-78
2023/09/08 07:05:46;;;;;;;;;24.00;21.50;;;;;-146.67;100.00;57155.34;5088616;28;10100;-78
2023/09/08 07:08:12;;;;;;;;;28.00;23.50;;;;;-146.67;100.00;57155.34;5102379;28;10219;-78
2023/09/08 07:10:38;;;;;;;;;26.25;23.00;;;;;-146.67;100.00;57155.34;5103324;28;9500;-79
2023/09/08 07:13:03;;;;;;;;;26.50;25.25;;;;;-146.67;100.00;57155.34;5102708;28;8791;-78
2023/09/08 07:15:29;;;;;;;;;26.00;25.25;;;;;-146.67;100.00;57155.34;5097817;28;8837;-78
2023/09/08 07:17:54;;;;;;;;;25.00;22.00;;;;;-146.67;100.00;57155.34;5121212;28;8880;-79
2023/09/08 07:20:19;;;;;;;;;23.00;20.50;;;;;-146.67;100.00;57155.34;5098111;28;8797;-78
2023/09/08 07:22:46;;;;;;;;;30.25;27.25;;;;;-146.67;100.00;57155.34;5098512;28;8802;-78
2023/09/08 07:25:11;;;;;;;;;22.00;19.75;;;;;-146.67;100.00;57155.34;5104686;28;8747;-78
2023/09/08 07:27:37;;;;;;;;;24.25;23.25;;;;;-146.67;100.00;57155.34;5104339;28;9881;-79
2023/09/08 07:30:02;;;;;;;;;21.75;18.00;;;;;-146.67;100.00;57155.34;5101834;28;9580;-77
2023/09/08 07:32:28;;;;;;;;;28.50;22.75;;;;;-146.67;100.00;57155.34;5104942;28;8937;-78
2023/09/08 07:34:54;;;;;;;;;22.50;20.25;;;;;-146.67;100.00;57155.34;5103467;28;8795;-78
2023/09/08 07:37:24;;;;;;;;;25.25;23.75;;;;;-146.67;100.00;57155.34;5120190;28;10033;-78
2023/09/08 07:39:50;;;;;;;;;21.75;19.25;;;;;-146.67;100.00;57155.34;5078705;28;9901;-78
2023/09/08 07:42:16;;;;;;;;;22.75;22.00;;;;;-146.67;100.00;57155.34;5089931;28;9678;-78
2023/09/08 07:44:42;;;;;;;;;27.75;22.25;;;;;-146.67;100.00;57155.34;5090813;28;9918;-78
2023/09/08 07:47:07;;;;;;;;;25.25;21.25;;;;;-146.67;100.00;57155.34;5093875;28;9944;-78
2023/09/08 07:49:34;;;;;;;;;27.25;25.25;;;;;-146.67;100.00;57155.34;5083363;28;8797;-78
2023/09/08 07:52:04;;;;;;;;;25.75;22.00;;;;;-146.67;100.00;57155.34;5081380;28;8753;-78
2023/09/08 07:54:30;;;;;;;;;25.75;23.75;;;;;-146.67;100.00;57155.34;5101408;28;9846;-78
2023/09/08 07:56:55;;;;;;;;;27.00;21.75;;;;;-146.67;100.00;57155.34;5083942;28;10581;-78
2023/09/08 07:59:26;;;;;;;;;24.50;21.50;;;;;-146.67;100.00;57155.34;5100669;28;8799;-78
2023/09/08 08:01:55;;;;;;;;;23.50;21.00;;;;;-146.67;100.00;57155.34;5090401;28;8777;-78
2023/09/08 08:04:21;;;;;;;;;23.00;20.75;;;;;-146.67;100.00;57155.34;5100992;28;9684;-79
2023/09/08 08:06:47;;;;;;;;;25.50;20.50;;;;;-146.67;100.00;57155.34;5081373;28;9922;-78
2023/09/08 08:09:13;;;;;;;;;25.25;20.50;;;;;-146.67;100.00;57155.34;5111079;28;8721;-78
2023/09/08 08:11:39;;;;;;;;;23.50;19.75;;;;;-146.67;100.00;57155.34;5093005;28;9605;-78
2023/09/08 08:14:10;;;;;;;;;21.50;20.25;;;;;-146.67;100.00;57155.34;5085414;28;9656;-79
2023/09/08 08:16:42;;;;;;;;;19.25;19.00;;;;;-146.67;100.00;57155.34;5102760;28;8750;-78
2023/09/08 08:19:07;;;;;;;;;21.75;19.50;;;;;-146.67;100.00;57155.34;5101842;28;9732;-79
2023/09/08 08:21:46;;;;;;;;;22.75;22.75;;;;;-146.67;100.00;57155.34;5102627;28;9639;-79
2023/09/08 08:24:24;;;;;;;;;26.50;19.75;;;;;-146.67;100.00;57155.34;5064501;28;8750;-76
2023/09/08 08:26:51;;;;;;;;;22.50;19.25;;;;;-146.67;100.00;57155.34;5083741;28;9915;-76
2023/09/08 08:29:17;;;;;;;;;19.75;18.00;;;;;-146.67;100.00;57155.34;5081671;28;9905;-75
2023/09/08 08:31:42;;;;;;;;;23.75;20.75;;;;;-146.67;100.00;57155.34;5082391;28;9647;-75
2023/09/08 08:34:09;;;;;;;;;22.00;20.00;;;;;-146.67;100.00;57155.34;5083255;28;9593;-76
2023/09/08 08:36:35;;;;;;;;;20.75;19.50;;;;;-146.67;100.00;57155.34;5083493;28;8718;-75
2023/09/08 08:39:01;;;;;;;;;18.75;18.75;;;;;-146.67;100.00;57155.34;5091758;28;9725;-75
2023/09/08 08:41:26;;;;;;;;;23.25;20.50;;;;;-146.67;100.00;57155.34;5082972;28;9675;-75
2023/09/08 08:43:53;;;;;;;;;28.25;20.00;;;;;-146.67;100.00;57155.34;5081421;28;8809;-76
2023/09/08 08:46:41;;;;;;;;;20.50;20.25;;;;;-146.67;100.00;57155.34;5082847;28;8894;-76
2023/09/08 08:49:11;;;;;;;;;22.75;20.00;;;;;-146.67;100.00;57155.34;5081838;28;9646;-76
2023/09/08 08:51:39;;;;;;;;;19.67;18.00;;;;;-146.67;100.00;57155.34;5064500;28;9487;-75
2023/09/08 08:54:05;;;;;;;;;12.67;12.00;;;;;-146.67;100.00;57155.34;5065527;28;9324;-75
2023/09/08 08:56:31;;;;;;;;;16.33;11.00;;;;;-146.67;100.00;57155.34;5063412;28;10167;-75
2023/09/08 08:58:58;;;;;;;;;12.33;10.00;;;;;-146.67;100.00;57155.34;5084727;28;8795;-76
2023/09/08 09:01:26;;;;;;;;;12.67;12.33;;;;;-146.67;100.00;57155.34;5090686;28;9365;-75
2023/09/08 09:03:52;;;;;;;;;15.33;12.33;;;;;-146.67;100.00;57155.34;5083445;28;9510;-75
2023/09/08 09:06:17;;;;;;;;;13.33;12.33;;;;;-146.67;100.00;57155.34;5083912;28;9607;-76
2023/09/08 09:08:44;;;;;;;;;14.00;12.33;;;;;-146.67;100.00;57155.34;5077395;28;9207;-75
2023/09/08 09:11:11;;;;;;;;;15.00;13.00;;;;;-146.67;100.00;57155.34;5079578;28;8774;-76
2023/09/08 09:13:37;;;;;;;;;14.67;12.00;;;;;-146.67;100.00;57155.34;5080508;28;9230;-76
2023/09/08 09:16:04;;;;;;;;;13.67;12.67;;;;;-146.67;100.00;57155.34;5081152;28;9398;-76
2023/09/08 09:18:30;;;;;;;;;12.67;12.67;;;;;-146.67;100.00;57155.34;5082645;28;9195;-75
2023/09/08 09:21:01;;;;;;;;;12.67;11.33;;;;;-146.67;100.00;57155.34;5087794;28;9299;-75
2023/09/08 09:23:31;;;;;;;;;15.33;12.00;;;;;-146.67;100.00;57155.34;5064533;28;9260;-75
2023/09/08 09:25:57;;;;;;;;;12.67;12.67;;;;;-146.67;100.00;57155.34;5111992;28;9196;-76
2023/09/08 09:28:23;;;;;;;;;9.00;9.00;;;;;-146.67;100.00;57155.34;5102867;28;9220;-75
2023/09/08 09:30:56;;;;;;;;;11.00;10.00;;;;;-146.67;100.00;57155.34;5092447;28;9227;-75
2023/09/08 09:33:23;;;;;;;;;9.67;8.33;;;;;-146.67;100.00;57155.34;5100976;28;8744;-75
2023/09/08 09:35:51;;;;;;;;;11.00;11.00;;;;;-146.67;100.00;57155.34;5084167;28;10018;-75
2023/09/08 09:38:18;;;;;;;;;16.33;10.33;;;;;-146.67;100.00;57155.34;5100927;28;9182;-75
2023/09/08 09:40:45;;;;;;;;;11.00;10.00;;;;;-146.67;100.00;57155.34;5102913;28;9249;-75
2023/09/08 09:43:11;;;;;;;;;11.00;10.00;;;;;-146.67;100.00;57155.34;5109204;28;9042;-75
2023/09/08 09:45:38;;;;;;;;;11.00;11.00;;;;;-146.67;100.00;57155.34;5101904;28;9300;-75
2023/09/08 09:48:05;;;;;;;;;11.67;9.67;;;;;-146.67;100.00;57155.34;5104578;28;9147;-76
2023/09/08 09:50:40;;;;;;;;;10.00;9.00;;;;;-146.67;100.00;57155.34;5090983;28;9088;-76
2023/09/08 09:53:12;;;;;;;;;2.00;2.00;;;;;-146.67;100.00;57155.34;5105741;28;8973;-75
2023/09/08 09:55:39;;;;;;;;;10.33;9.33;;;;;-146.67;100.00;57155.34;5121738;28;10130;-76
2023/09/08 09:58:05;;;;;;;;;12.67;10.00;;;;;-146.67;100.00;57155.34;5088120;28;9137;-76
2023/09/08 10:00:33;;;;;;;;;14.67;12.00;;;;;-146.67;100.00;57155.34;5115667;28;9090;-76
2023/09/08 10:02:59;;;;;;;;;13.00;12.00;;;;;-146.67;100.00;57155.34;5084146;28;8776;-76
2023/09/08 10:05:25;;;;;;;;;12.67;11.00;;;;;-146.67;100.00;57155.34;5100990;28;9265;-75
2023/09/08 10:07:51;;;;;;;;;15.33;12.00;;;;;-146.67;100.00;57155.34;5118045;28;9010;-75
2023/09/08 10:10:18;;;;;;;;;13.00;12.00;;;;;-146.67;100.00;57155.34;5121489;28;8706;-75
2023/09/08 10:12:45;;;;;;;;;14.33;12.00;;;;;-146.67;100.00;57155.34;5121453;28;9291;-75
2023/09/08 10:15:13;;;;;;;;;12.00;9.67;;;;;-146.67;100.00;57155.34;5114854;28;9434;-75
2023/09/08 10:17:41;;;;;;;;;11.67;8.67;;;;;-146.67;100.00;57155.34;5101330;28;9119;-76
2023/09/08 10:20:11;;;;;;;;;10.67;9.67;;;;;-146.67;100.00;57155.34;5099440;28;8960;-75
2023/09/08 10:22:42;;;;;;;;;10.00;10.00;;;;;-146.67;100.00;57155.34;5102389;28;9096;-76
2023/09/08 10:25:08;;;;;;;;;13.00;11.33;;;;;-146.67;100.00;57155.34;5099883;28;10401;-74
2023/09/08 10:27:35;;;;;;;;;12.00;10.00;;;;;-146.67;100.00;57155.34;5100091;28;9204;-75
2023/09/08 10:30:06;;;;;;;;;11.33;10.00;;;;;-146.67;100.00;57155.34;5107611;28;9130;-78
2023/09/08 10:32:35;;;;;;;;;14.67;12.00;;;;;-146.67;100.00;57155.34;5106961;28;9102;-78
2023/09/08 10:35:03;;;;;;;;;12.67;11.00;;;;;-146.67;100.00;57155.34;5100487;28;10670;-78
2023/09/08 10:37:32;;;;;;;;;8.67;8.00;;;;;-146.67;100.00;57155.34;5102114;28;9022;-81
2023/09/08 10:40:27;;;;;;;;;11.33;9.00;;;;;-146.67;100.00;57155.34;5099533;28;9009;-83
2023/09/08 10:43:09;;;;;;;;;14.67;11.67;;;;;-146.67;100.00;57155.34;5097095;28;8951;-78
2023/09/08 10:45:34;;;;;;;;;10.33;10.33;;;;;-146.67;100.00;57155.34;5099730;28;9277;-78
2023/09/08 10:48:00;;;;;;;;;8.00;8.00;;;;;-146.67;100.00;57155.34;5100677;28;9809;-85
2023/09/08 10:50:30;;;;;;;;;13.67;10.00;;;;;-146.67;100.00;57155.34;5102553;28;8916;-84
2023/09/08 10:53:17;;;;;;;;;11.00;9.00;;;;;-146.67;100.00;57155.34;5087575;28;10404;-78
2023/09/08 10:55:48;;;;;;;;;11.67;9.67;;;;;-146.67;100.00;57155.34;5114351;28;9085;-95
2023/09/08 10:58:36;;;;;;;;;12.00;12.00;;;;;-146.67;100.00;57155.34;5105086;28;8951;-88
2023/09/08 11:01:04;;;;;;;;;12.33;10.33;;;;;-146.67;100.00;57155.34;5086840;28;9036;-78